CMB weather

Bandaranaike International Colombo Airport
Colombo, Western Province, Sri Lanka

Public forecast

Using degrees Celsius for public forecast. Weather courtesy of forecast.io.

Current aviation weather report (METAR) for Bandaranaike International Colombo Airport

Retrieved 2019/10/23 04:40 UTC (0 seconds ago):

VCBI 230440Z 25005KT 9999 SCT018 30/26 Q1011 NOSIG

Aviation forecast (TAF) for Bandaranaike International Colombo Airport

Retrieved 2019-10-23 00:00 UTC (5 hours ago):

TAF VCBI 222300Z 2300/2406 VRB05KT 9999 SCT018 TX30/2308Z TN24/2400Z PROB30 TEMPO 2300/2304 6000 -TSRA/SHRA FEW012 BKN016 FEW020CB